createdAt,value
2023-04-21T00:02:24.730Z,7.35
2023-04-21T00:04:56.655Z,7.34
2023-04-21T00:07:26.314Z,7.42
2023-04-21T00:09:55.880Z,7.40
2023-04-21T00:12:25.497Z,7.41
2023-04-21T00:14:57.616Z,7.44
2023-04-21T00:17:27.938Z,7.42
2023-04-21T00:19:58.709Z,7.38
2023-04-21T00:22:28.329Z,7.36
2023-04-21T00:24:58.471Z,7.30
2023-04-21T00:27:27.997Z,7.31
2023-04-21T00:30:00.206Z,7.31
2023-04-21T00:32:29.848Z,7.26
2023-04-21T00:34:59.485Z,7.26
2023-04-21T00:37:29.055Z,7.21
2023-04-21T00:39:58.786Z,7.12
2023-04-21T00:42:28.500Z,7.06
2023-04-21T00:45:00.610Z,7.06
2023-04-21T00:47:30.183Z,7.11
2023-04-21T00:50:00.240Z,7.07
2023-04-21T00:52:31.030Z,7.10
2023-04-21T00:55:00.957Z,7.15
2023-04-21T00:57:31.422Z,7.16
2023-04-21T01:00:03.824Z,7.14
2023-04-21T01:02:33.582Z,7.12
2023-04-21T01:05:03.359Z,7.10
2023-04-21T01:07:33.206Z,7.22
2023-04-21T01:10:02.994Z,7.19
2023-04-21T01:12:32.652Z,7.09
2023-04-21T01:15:05.090Z,7.00
2023-04-21T01:17:38.591Z,6.98
2023-04-21T01:20:11.832Z,6.99
2023-04-21T01:22:45.503Z,6.86
2023-04-21T01:25:15.242Z,6.77
2023-04-21T01:27:44.789Z,6.78
2023-04-21T01:30:14.930Z,6.66
2023-04-21T01:32:45.615Z,6.54
2023-04-21T01:35:15.368Z,6.51
2023-04-21T01:37:47.575Z,6.38
2023-04-21T01:40:17.181Z,6.35
2023-04-21T01:42:46.897Z,6.42
2023-04-21T01:45:16.566Z,6.48
2023-04-21T01:47:46.237Z,6.55
2023-04-21T01:50:16.392Z,6.65
2023-04-21T01:52:48.560Z,6.62
2023-04-21T01:55:18.517Z,6.66
2023-04-21T01:57:48.030Z,6.65
2023-04-21T02:00:18.586Z,6.58
2023-04-21T02:02:48.219Z,6.43
2023-04-21T02:05:18.036Z,6.35
2023-04-21T02:07:50.427Z,6.26
2023-04-21T02:10:20.409Z,6.26
2023-04-21T02:12:49.969Z,6.32
2023-04-21T02:15:19.491Z,6.27
2023-04-21T02:17:49.076Z,6.52
2023-04-21T02:20:18.646Z,6.36
2023-04-21T02:22:50.770Z,6.27
2023-04-21T02:25:20.339Z,6.21
2023-04-21T02:27:49.876Z,6.19
2023-04-21T02:30:19.517Z,6.15
2023-04-21T02:32:49.138Z,6.15
2023-04-21T02:35:19.149Z,6.10
2023-04-21T02:37:51.270Z,6.05
2023-04-21T02:40:21.418Z,6.06
2023-04-21T02:42:50.959Z,6.02
2023-04-21T02:45:20.627Z,6.07
2023-04-21T02:47:50.175Z,6.02
2023-04-21T02:50:19.753Z,6.04
2023-04-21T02:52:51.860Z,6.12
2023-04-21T02:55:22.710Z,6.14
2023-04-21T02:57:52.238Z,5.98
2023-04-21T03:00:22.398Z,5.91
2023-04-21T03:02:53.595Z,5.84
2023-04-21T03:05:23.485Z,5.84
2023-04-21T03:07:55.598Z,5.70
2023-04-21T03:10:25.182Z,5.60
2023-04-21T03:12:54.731Z,5.50
2023-04-21T03:15:24.320Z,5.45
2023-04-21T03:17:53.937Z,5.42
2023-04-21T03:20:23.698Z,5.33
2023-04-21T03:22:56.285Z,5.35
2023-04-21T03:25:27.672Z,5.32
2023-04-21T03:27:57.277Z,5.27
2023-04-21T03:30:27.817Z,5.26
2023-04-21T03:32:58.972Z,5.21
2023-04-21T03:35:28.737Z,5.25
2023-04-21T03:38:02.032Z,5.34
2023-04-21T03:40:33.358Z,5.35
2023-04-21T03:43:02.888Z,5.25
2023-04-21T03:45:32.710Z,5.22
2023-04-21T03:48:02.411Z,5.24
2023-04-21T03:50:32.301Z,5.15
2023-04-21T03:53:04.429Z,5.19
2023-04-21T03:55:34.008Z,5.30
2023-04-21T03:58:03.617Z,5.29
2023-04-21T04:00:33.189Z,5.34
2023-04-21T04:03:02.870Z,5.44
2023-04-21T04:05:32.562Z,5.60
2023-04-21T04:08:05.005Z,5.91
2023-04-21T04:10:34.582Z,6.26
2023-04-21T04:13:04.174Z,6.66
2023-04-21T04:15:33.764Z,7.13
2023-04-21T04:18:03.413Z,7.52
2023-04-21T04:20:33.104Z,8.03
2023-04-21T04:23:05.251Z,8.53
2023-04-21T04:25:34.780Z,9.12
2023-04-21T04:28:05.550Z,9.73
2023-04-21T04:30:35.560Z,10.23
2023-04-21T04:33:05.754Z,10.47
2023-04-21T04:35:35.400Z,11.12
2023-04-21T04:38:07.804Z,11.37
2023-04-21T04:40:37.481Z,11.66
2023-04-21T04:43:09.027Z,12.41
2023-04-21T04:45:39.077Z,13.39
2023-04-21T04:48:09.560Z,13.05
2023-04-21T04:50:39.071Z,13.06
2023-04-21T04:53:11.266Z,13.27
2023-04-21T04:55:40.855Z,13.67
2023-04-21T04:58:10.490Z,14.20
2023-04-21T05:00:40.068Z,14.66
2023-04-21T05:03:09.760Z,15.59
2023-04-21T05:05:39.432Z,14.76
2023-04-21T05:08:11.683Z,15.27
2023-04-21T05:10:41.262Z,15.73
2023-04-21T05:13:10.827Z,16.11
2023-04-21T05:15:40.427Z,16.13
2023-04-21T05:18:10.450Z,16.51
2023-04-21T05:20:40.010Z,16.02
2023-04-21T05:23:12.185Z,16.95
2023-04-21T05:25:41.790Z,16.78
2023-04-21T05:28:11.436Z,18.16
2023-04-21T05:30:41.162Z,17.77
2023-04-21T05:33:10.810Z,18.97
2023-04-21T05:35:40.598Z,17.51
2023-04-21T05:38:12.689Z,17.38
2023-04-21T05:40:42.277Z,18.42
2023-04-21T05:43:11.806Z,18.23
2023-04-21T05:45:42.829Z,17.04
2023-04-21T05:48:13.586Z,18.27
2023-04-21T05:50:43.455Z,18.93
2023-04-21T05:53:15.661Z,18.13
2023-04-21T05:55:45.166Z,17.16
2023-04-21T05:58:14.701Z,16.86
2023-04-21T06:00:44.291Z,17.35
2023-04-21T06:03:13.870Z,17.12
2023-04-21T06:05:43.583Z,18.84
2023-04-21T06:08:16.061Z,20.36
2023-04-21T06:10:45.587Z,19.67
2023-04-21T06:13:15.144Z,19.56
2023-04-21T06:15:44.780Z,18.98
2023-04-21T06:18:14.809Z,18.59
2023-04-21T06:20:44.429Z,16.84
2023-04-21T06:23:16.556Z,17.84
2023-04-21T06:25:46.098Z,16.95
2023-04-21T06:28:15.694Z,17.62
2023-04-21T06:30:46.114Z,18.39
2023-04-21T06:33:15.622Z,18.55
2023-04-21T06:35:45.165Z,19.92
2023-04-21T06:38:17.309Z,19.79
2023-04-21T06:40:47.395Z,18.16
2023-04-21T06:43:16.942Z,17.38
2023-04-21T06:45:46.473Z,17.89
2023-04-21T06:48:16.098Z,16.91
2023-04-21T06:50:46.702Z,18.60
2023-04-21T06:53:21.816Z,17.70
2023-04-21T06:55:52.517Z,18.09
2023-04-21T06:58:22.099Z,17.71
2023-04-21T07:00:51.648Z,18.24
2023-04-21T07:03:21.309Z,18.81
2023-04-21T07:05:50.955Z,21.15
2023-04-21T07:08:23.056Z,21.67
2023-04-21T07:10:52.600Z,20.25
2023-04-21T07:13:22.204Z,19.91
2023-04-21T07:15:51.864Z,20.93
2023-04-21T07:18:21.429Z,21.00
2023-04-21T07:20:50.969Z,22.72
2023-04-21T07:23:23.113Z,20.72
2023-04-21T07:25:52.672Z,20.68
2023-04-21T07:28:22.222Z,23.31
2023-04-21T07:30:51.844Z,23.13
2023-04-21T07:33:21.397Z,21.90
2023-04-21T07:35:50.871Z,23.86
2023-04-21T07:38:23.028Z,24.60
2023-04-21T07:40:52.557Z,27.11
2023-04-21T07:43:22.430Z,24.35
2023-04-21T07:45:52.828Z,26.34
2023-04-21T07:48:22.456Z,25.60
2023-04-21T07:50:53.452Z,24.59
2023-04-21T07:53:25.597Z,25.54
2023-04-21T07:55:55.123Z,24.86
2023-04-21T07:58:24.848Z,25.04
2023-04-21T08:00:54.800Z,25.81
2023-04-21T08:03:24.934Z,25.14
2023-04-21T08:05:54.701Z,24.95
2023-04-21T08:08:26.969Z,25.07
2023-04-21T08:10:56.516Z,25.32
2023-04-21T08:13:26.241Z,26.56
2023-04-21T08:15:56.032Z,25.85
2023-04-21T08:18:26.062Z,26.89
2023-04-21T08:20:57.634Z,25.62
2023-04-21T08:23:32.401Z,24.40
2023-04-21T08:26:02.164Z,23.73
2023-04-21T08:28:31.686Z,24.18
2023-04-21T08:31:02.472Z,24.63
2023-04-21T08:33:32.079Z,23.94
2023-04-21T08:36:09.892Z,25.02
2023-04-21T08:38:47.904Z,25.52
2023-04-21T08:41:17.513Z,25.84
2023-04-21T08:43:47.067Z,25.80
2023-04-21T08:46:17.680Z,20.73
2023-04-21T08:48:49.489Z,20.34
2023-04-21T08:51:25.021Z,22.85
2023-04-21T08:53:58.062Z,22.42
2023-04-21T08:56:28.723Z,21.04
2023-04-21T08:58:58.254Z,23.33
2023-04-21T09:01:27.886Z,21.76
2023-04-21T09:03:57.615Z,21.80
2023-04-21T09:06:27.822Z,24.17
2023-04-21T09:09:00.013Z,23.13
2023-04-21T09:11:35.998Z,22.26
2023-04-21T09:14:05.575Z,22.77
2023-04-21T09:16:35.952Z,22.61
2023-04-21T09:19:05.661Z,21.87
2023-04-21T09:21:35.168Z,23.43
2023-04-21T09:24:10.335Z,23.85
2023-04-21T09:26:39.855Z,24.52
2023-04-21T09:29:09.733Z,24.26
2023-04-21T09:31:39.382Z,22.37
2023-04-21T09:34:21.173Z,23.90
2023-04-21T09:36:50.744Z,24.47
2023-04-21T09:39:40.612Z,23.50
2023-04-21T09:42:15.782Z,23.09
2023-04-21T09:44:53.246Z,22.68
2023-04-21T09:47:32.389Z,22.23
2023-04-21T09:50:02.746Z,22.60
2023-04-21T09:52:33.786Z,22.88
2023-04-21T09:55:08.431Z,23.07
2023-04-21T09:57:42.216Z,24.34
2023-04-21T10:00:17.210Z,22.81
2023-04-21T10:02:49.929Z,21.83
2023-04-21T10:05:19.690Z,21.79
2023-04-21T10:07:50.670Z,21.40
2023-04-21T10:10:27.339Z,20.96
2023-04-21T10:12:57.736Z,21.94
2023-04-21T13:05:32.394Z,18.95
2023-04-21T13:08:01.927Z,18.68
2023-04-21T13:10:31.827Z,18.23
2023-04-21T13:13:01.369Z,18.43
2023-04-21T13:15:30.955Z,18.30
2023-04-21T13:18:01.189Z,18.77
2023-04-21T13:20:33.386Z,19.04
2023-04-21T13:23:02.927Z,19.25
2023-04-21T13:25:32.489Z,18.92
2023-04-21T13:28:02.002Z,19.39
2023-04-21T13:30:31.536Z,19.13
2023-04-21T13:33:01.166Z,19.03
2023-04-21T13:35:33.355Z,19.14
2023-04-21T13:38:02.872Z,18.77
2023-04-21T13:40:32.605Z,18.70
2023-04-21T13:43:02.306Z,18.96
2023-04-21T13:45:32.003Z,18.89
2023-04-21T13:48:01.599Z,18.75
2023-04-21T13:50:33.734Z,19.03
2023-04-21T13:53:03.264Z,19.09
2023-04-21T13:55:32.884Z,19.17
2023-04-21T13:58:02.745Z,19.18
2023-04-21T14:00:32.345Z,19.50
2023-04-21T14:03:02.288Z,19.51
2023-04-21T14:05:34.764Z,19.29
2023-04-21T14:08:04.765Z,19.25
2023-04-21T14:10:34.249Z,19.18
2023-04-21T14:13:04.178Z,19.31
2023-04-21T14:15:33.879Z,18.76
2023-04-21T14:18:03.526Z,19.08
2023-04-21T14:20:35.754Z,19.01
2023-04-21T14:23:05.435Z,19.06
2023-04-21T14:25:35.106Z,18.52
2023-04-21T14:28:07.414Z,18.42
2023-04-21T14:30:37.901Z,18.50
2023-04-21T14:33:08.159Z,18.63
2023-04-21T14:35:42.252Z,18.59
2023-04-21T14:38:11.821Z,18.90
2023-04-21T14:40:41.371Z,19.05
2023-04-21T14:43:11.555Z,19.46
2023-04-21T14:45:41.501Z,18.92
2023-04-21T14:48:11.937Z,18.72
2023-04-21T14:50:44.368Z,18.29
2023-04-21T14:53:14.008Z,17.95
2023-04-21T14:55:43.544Z,17.69
2023-04-21T14:58:13.122Z,17.73
2023-04-21T15:00:42.732Z,17.67
2023-04-21T15:03:12.680Z,17.63
2023-04-21T15:05:44.944Z,17.57
2023-04-21T15:08:18.168Z,17.70
2023-04-21T15:10:47.868Z,17.99
2023-04-21T15:13:17.572Z,18.18
2023-04-21T15:15:47.090Z,18.34
2023-04-21T15:18:16.762Z,18.12
2023-04-21T15:20:48.944Z,18.45
2023-04-21T15:23:19.781Z,18.59
2023-04-21T15:25:49.786Z,18.58
2023-04-21T15:28:19.279Z,19.01
2023-04-21T15:30:48.929Z,18.90
2023-04-21T15:33:18.494Z,18.87
2023-04-21T15:35:50.614Z,18.17
2023-04-21T15:38:21.310Z,18.42
2023-04-21T15:41:00.631Z,18.53
2023-04-21T15:43:31.826Z,18.37
2023-04-21T15:46:01.552Z,17.99
2023-04-21T15:48:31.295Z,17.99
2023-04-21T15:51:04.832Z,17.84
2023-04-21T15:53:37.578Z,17.58
2023-04-21T15:56:07.356Z,17.48
2023-04-21T15:58:36.898Z,17.32
2023-04-21T16:01:07.175Z,17.07
2023-04-21T16:03:37.166Z,16.97
2023-04-21T16:06:10.892Z,16.92
2023-04-21T16:08:40.652Z,16.93
2023-04-21T16:11:10.301Z,16.81
2023-04-21T16:13:39.938Z,16.77
2023-04-21T16:16:10.008Z,16.77
2023-04-21T16:18:39.776Z,16.67
2023-04-21T16:21:12.120Z,16.61
2023-04-21T16:23:41.851Z,16.58
2023-04-21T16:26:11.705Z,16.58
2023-04-21T16:28:41.297Z,16.53
2023-04-21T16:31:11.224Z,16.53
2023-04-21T16:33:40.834Z,16.58
2023-04-21T16:36:13.259Z,16.58
2023-04-21T16:38:45.733Z,16.51
2023-04-21T16:41:17.199Z,16.50
2023-04-21T16:43:47.933Z,16.43
2023-04-21T16:46:17.813Z,16.39
2023-04-21T16:48:47.414Z,16.35
2023-04-21T16:51:19.618Z,16.30
2023-04-21T16:53:49.181Z,16.24
2023-04-21T16:56:20.441Z,16.25
2023-04-21T16:58:50.105Z,16.26
2023-04-21T17:01:19.752Z,16.23
2023-04-21T17:03:49.395Z,16.16
2023-04-21T17:06:22.052Z,16.12
2023-04-21T17:08:53.177Z,16.03
2023-04-21T17:11:22.718Z,15.97
2023-04-21T17:13:52.230Z,15.87
2023-04-21T17:16:21.825Z,15.81
2023-04-21T17:18:51.507Z,15.81
2023-04-21T17:21:23.634Z,15.78
2023-04-21T17:23:53.230Z,15.72
2023-04-21T17:26:23.538Z,15.62
2023-04-21T17:28:53.112Z,15.58
2023-04-21T17:31:22.708Z,15.52
2023-04-21T17:33:52.808Z,15.49
2023-04-21T17:36:25.307Z,15.41
2023-04-21T17:38:54.907Z,15.27
2023-04-21T17:41:24.948Z,15.16
2023-04-21T17:43:55.029Z,15.13
2023-04-21T17:46:25.337Z,15.09
2023-04-21T17:48:55.170Z,15.03
2023-04-21T17:51:28.918Z,14.91
2023-04-21T17:53:58.430Z,14.81
2023-04-21T17:56:28.013Z,14.68
2023-04-21T17:58:57.534Z,14.55
2023-04-21T18:01:27.090Z,14.53
2023-04-21T18:04:00.607Z,14.51
2023-04-21T18:06:33.356Z,14.43
2023-04-21T18:09:03.005Z,14.23
2023-04-21T18:11:32.564Z,13.97
2023-04-21T18:14:02.716Z,13.82
2023-04-21T18:16:32.357Z,13.70
2023-04-21T18:19:02.005Z,13.64
2023-04-21T18:21:34.294Z,13.52
2023-04-21T18:24:04.237Z,13.43
2023-04-21T18:26:33.742Z,13.40
2023-04-21T18:29:03.350Z,13.31
2023-04-21T18:31:33.531Z,13.28
2023-04-21T18:34:03.167Z,13.16
2023-04-21T18:36:36.998Z,13.08
2023-04-21T18:39:08.174Z,13.03
2023-04-21T18:41:37.745Z,12.93
2023-04-21T18:44:08.544Z,12.86
2023-04-21T18:46:38.186Z,12.79
2023-04-21T18:49:07.749Z,12.73
2023-04-21T18:51:39.976Z,12.60
2023-04-21T18:54:09.547Z,12.41
2023-04-21T18:56:39.179Z,12.27
2023-04-21T18:59:09.883Z,12.18
2023-04-21T19:01:40.635Z,12.16
2023-04-21T19:04:12.027Z,12.17
2023-04-21T19:06:44.300Z,12.12
2023-04-21T19:09:14.013Z,12.10
2023-04-21T19:11:43.595Z,12.02
2023-04-21T19:14:13.231Z,11.95
2023-04-21T19:16:43.072Z,11.98
2023-04-21T19:19:12.686Z,11.94
2023-04-21T19:21:44.819Z,11.86
2023-04-21T19:24:14.371Z,11.79
2023-04-21T19:26:43.973Z,11.71
2023-04-21T19:29:15.125Z,11.62
2023-04-21T19:31:44.769Z,11.52
2023-04-21T19:34:14.808Z,11.45
2023-04-21T19:36:47.071Z,11.41
2023-04-21T19:39:16.567Z,11.32
2023-04-21T19:41:46.662Z,11.38
2023-04-21T19:44:16.267Z,11.35
2023-04-21T19:46:46.102Z,11.31
2023-04-21T19:49:15.943Z,11.32
2023-04-21T19:51:48.074Z,11.28
2023-04-21T19:54:17.962Z,11.30
2023-04-21T19:56:47.920Z,11.26
2023-04-21T19:59:18.384Z,11.19
2023-04-21T20:01:47.995Z,11.18
2023-04-21T20:04:17.777Z,11.15
2023-04-21T20:06:50.386Z,11.10
2023-04-21T20:09:19.927Z,10.99
2023-04-21T20:11:49.997Z,10.93
2023-04-21T20:14:20.526Z,10.88
2023-04-21T20:16:50.137Z,10.82
2023-04-21T20:19:22.948Z,10.82
2023-04-21T20:21:55.104Z,10.81
2023-04-21T20:24:24.603Z,10.72
2023-04-21T20:26:54.199Z,10.60
2023-04-21T20:29:23.742Z,10.56
2023-04-21T20:31:53.339Z,10.53
2023-04-21T20:34:23.079Z,10.52
2023-04-21T20:36:56.063Z,10.45
2023-04-21T20:39:25.986Z,10.48
2023-04-21T20:42:08.852Z,10.36
2023-04-21T20:44:42.956Z,10.26
2023-04-21T20:47:13.897Z,10.12
2023-04-21T20:49:43.664Z,10.07
2023-04-21T20:52:16.167Z,10.05
2023-04-21T20:54:45.711Z,9.92
2023-04-21T20:57:15.289Z,9.83
2023-04-21T20:59:44.845Z,9.84
2023-04-21T21:02:14.484Z,9.81
2023-04-21T21:04:44.069Z,9.75
2023-04-21T21:07:16.315Z,9.70
2023-04-21T21:09:45.878Z,9.54
2023-04-21T21:12:15.435Z,9.41
2023-04-21T21:14:45.182Z,9.42
2023-04-21T21:17:16.809Z,9.35
2023-04-21T21:19:46.460Z,9.35
2023-04-21T21:22:18.565Z,9.40
2023-04-21T21:24:50.529Z,9.28
2023-04-21T21:27:20.184Z,9.24
2023-04-21T21:29:49.705Z,9.19
2023-04-21T21:32:19.741Z,9.16
2023-04-21T21:34:49.805Z,9.23
2023-04-21T21:37:23.581Z,9.19
2023-04-21T21:39:55.068Z,9.25
2023-04-21T21:42:24.690Z,9.20
2023-04-21T21:44:54.277Z,9.12
2023-04-21T21:47:23.923Z,9.06
2023-04-21T21:49:55.218Z,8.94
2023-04-21T21:52:28.729Z,8.77
2023-04-21T21:54:58.598Z,8.58
2023-04-21T21:57:28.601Z,8.58
2023-04-21T22:00:00.530Z,8.44
2023-04-21T22:02:30.506Z,8.35
2023-04-21T22:05:00.833Z,8.29
2023-04-21T22:07:33.031Z,8.21
2023-04-21T22:10:02.564Z,8.17
2023-04-21T22:12:34.147Z,8.22
2023-04-21T22:15:03.825Z,8.15
2023-04-21T22:17:34.810Z,8.16
2023-04-21T22:20:08.532Z,8.02
2023-04-21T22:22:40.942Z,8.01
2023-04-21T22:25:11.439Z,7.99
2023-04-21T22:27:41.712Z,7.97
2023-04-21T22:30:12.302Z,7.97
2023-04-21T22:32:41.855Z,8.18
2023-04-21T22:35:11.980Z,8.12
2023-04-21T22:37:44.766Z,8.07
2023-04-21T22:40:14.710Z,8.17
2023-04-21T22:42:44.746Z,8.17
2023-04-21T22:45:14.690Z,8.14
2023-04-21T22:47:44.285Z,8.10
2023-04-21T22:50:15.048Z,8.06
2023-04-21T22:52:47.212Z,8.01
2023-04-21T22:55:16.851Z,7.88
2023-04-21T22:57:46.484Z,7.78
2023-04-21T23:00:16.569Z,7.85
2023-04-21T23:02:46.185Z,7.99
2023-04-21T23:05:16.003Z,8.13
2023-04-21T23:07:48.147Z,8.06
2023-04-21T23:10:17.656Z,8.01
2023-04-21T23:12:47.227Z,7.93
2023-04-21T23:15:16.778Z,7.83
2023-04-21T23:17:46.563Z,7.73
2023-04-21T23:20:16.187Z,7.66
2023-04-21T23:22:48.324Z,7.59
2023-04-21T23:25:17.926Z,7.49
2023-04-21T23:27:47.516Z,7.37
2023-04-21T23:30:17.405Z,7.29
2023-04-21T23:32:46.996Z,7.27
2023-04-21T23:35:16.513Z,7.25
2023-04-21T23:37:48.984Z,7.25
2023-04-21T23:40:18.689Z,7.33
2023-04-21T23:42:48.405Z,7.42
2023-04-21T23:45:18.078Z,7.53
2023-04-21T23:47:47.992Z,7.53
2023-04-21T23:50:17.575Z,7.41
2023-04-21T23:52:49.713Z,7.26
2023-04-21T23:55:19.274Z,7.13
2023-04-21T23:57:48.852Z,7.02
